Ariel, Washington
Current Conditions -  °F | °C
As of 7:35 PM on Saturday 22 Nov 2014 (Local Time) from KKLS Reporting Station
Broken Clouds Broken Clouds  
Wind Chill: 45°   Ceiling: 6000
Heat Index: 45°   Visibility: 10mi
Dew Point: 41°   Wind: 3mph
Humidity: 87%   Direction: 160°SSE
Pressure: 30.17"   Gusts: NA
Location:  45.96°N, 122.57°W
Report Text: KKLS 230335Z 16003KT 10SM FEW043 BKN060 07/05 A3017 RMK AO1
Loading
Personal Weather Stations






























Interactive Weather Map New forecast layout! Learn more

10-Day Weather Forecast

Advertisements
Track Severe Weather on mobile